Time;durP1;ratioP1;P1;durP2;ratioP2;P2;SDS_P1;SDS_P2;PMS_P1;PMS_P2;Temp;Humidity;BMP_temperature;BMP_pressure;BME280_temperature;BME280_humidity;BME280_pressure;Samples;Min_cycle;Max_cycle;Signal;HPM_P1;HPM_P2
2022/09/30 00:00:09;;;;;;;;;41.67;36.67;;;;;12.23;100.00;98786.34;6313774;20;3600281;-48
2022/09/30 00:02:37;;;;;;;;;40.67;34.67;;;;;12.18;100.00;98788.56;6280119;20;3609650;-51
2022/09/30 00:05:06;;;;;;;;;44.67;38.00;;;;;12.25;100.00;98789.78;6282359;20;3572139;-48
2022/09/30 00:07:35;;;;;;;;;48.67;39.67;;;;;12.44;100.00;98783.69;6282173;20;3597175;-51
2022/09/30 00:10:03;;;;;;;;;38.50;35.00;;;;;12.50;100.00;98794.78;6281295;20;2493139;-48
2022/09/30 00:12:32;;;;;;;;;45.00;37.33;;;;;12.60;100.00;98794.03;6283728;20;3576783;-46
2022/09/30 00:15:01;;;;;;;;;47.33;40.00;;;;;12.64;100.00;98790.13;6315729;20;3596088;-46
2022/09/30 00:17:30;;;;;;;;;46.67;38.67;;;;;12.80;100.00;98777.03;6284833;20;3588770;-47
2022/09/30 00:19:59;;;;;;;;;46.33;37.67;;;;;12.91;100.00;98774.28;6281545;20;2850281;-48
2022/09/30 00:22:28;;;;;;;;;39.00;34.67;;;;;13.00;100.00;98771.78;6311301;20;3580595;-45
2022/09/30 00:24:57;;;;;;;;;43.33;37.00;;;;;13.06;100.00;98773.94;6285263;20;3585681;-46
2022/09/30 00:27:25;;;;;;;;;47.33;40.67;;;;;13.11;100.00;98787.88;6281178;20;3595162;-48
2022/09/30 00:29:54;;;;;;;;;42.00;37.00;;;;;13.02;100.00;98784.13;6277224;20;2845044;-49
2022/09/30 00:32:22;;;;;;;;;46.67;37.67;;;;;13.20;100.00;98786.22;6283353;20;3598374;-48
2022/09/30 00:34:51;;;;;;;;;45.00;36.00;;;;;13.28;100.00;98795.38;6280881;20;2853489;-51
2022/09/30 00:37:20;;;;;;;;;48.33;40.67;;;;;13.27;100.00;98803.59;6282623;20;3600253;-51
2022/09/30 00:39:49;;;;;;;;;50.00;39.33;;;;;13.35;100.00;98811.91;6281306;20;3611814;-48
2022/09/30 00:42:18;;;;;;;;;49.33;41.33;;;;;13.34;100.00;98832.59;6310511;20;2867148;-49
2022/09/30 00:45:09;;;;;;;;;46.50;40.00;;;;;13.32;100.00;98833.69;6311409;20;2851353;-48
2022/09/30 00:48:07;;;;;;;;;49.33;40.00;;;;;13.28;100.00;98827.72;6278651;20;2860783;-46
2022/09/30 00:50:45;;;;;;;;;45.00;37.33;;;;;13.39;100.00;98822.25;6311094;20;3589854;-47
2022/09/30 00:53:28;;;;;;;;;45.67;38.33;;;;;13.43;100.00;98816.59;6279344;20;2859736;-46
2022/09/30 00:56:21;;;;;;;;;47.00;38.33;;;;;13.34;100.00;98821.81;6311510;20;3587912;-47
2022/09/30 00:59:05;;;;;;;;;41.33;37.00;;;;;13.46;100.00;98805.56;6275910;20;2848362;-46
2022/09/30 01:01:39;;;;;;;;;44.00;36.00;;;;;13.36;100.00;98795.56;6316816;20;3583612;-45
2022/09/30 01:04:19;;;;;;;;;44.33;35.67;;;;;13.47;100.00;98767.66;6279814;20;3604927;-46
2022/09/30 01:06:50;;;;;;;;;43.33;37.00;;;;;13.33;100.00;98725.75;6273314;20;3590242;-47
2022/09/30 01:09:19;;;;;;;;;35.67;32.67;;;;;13.24;100.00;98749.91;6313191;20;3567015;-47
2022/09/30 01:11:49;;;;;;;;;48.33;39.67;;;;;13.25;100.00;98787.53;6275236;20;3614817;-47
2022/09/30 01:14:24;;;;;;;;;48.67;40.67;;;;;13.27;100.00;98768.53;6311958;20;3589832;-49
2022/09/30 01:17:27;;;;;;;;;50.33;41.67;;;;;13.41;100.00;98743.94;6271390;20;2862873;-46
2022/09/30 01:20:54;;;;;;;;;49.33;41.67;;;;;13.35;100.00;98745.34;6316349;20;3580518;-46
2022/09/30 01:23:56;;;;;;;;;54.33;45.33;;;;;13.48;100.00;98747.81;6276924;20;3614910;-49
2022/09/30 01:27:11;;;;;;;;;52.00;42.67;;;;;13.50;100.00;98743.09;6310387;20;3587300;-48
2022/09/30 01:30:14;;;;;;;;;51.33;41.00;;;;;13.52;100.00;98748.38;6271096;20;3598354;-45
2022/09/30 01:33:24;;;;;;;;;55.33;43.67;;;;;13.49;100.00;98743.25;6313404;20;3624208;-48
2022/09/30 01:36:47;;;;;;;;;57.33;44.00;;;;;13.43;100.00;98763.53;6278802;20;3634659;-46
2022/09/30 01:39:36;;;;;;;;;56.67;44.00;;;;;13.47;100.00;98756.88;6308223;20;3639920;-46
2022/09/30 01:42:24;;;;;;;;;58.33;45.33;;;;;13.55;100.00;98750.81;6279187;20;3634722;-47
2022/09/30 01:45:12;;;;;;;;;56.75;45.00;;;;;13.60;100.00;98743.16;6311138;20;3632613;-45
2022/09/30 01:48:12;;;;;;;;;53.67;43.67;;;;;13.72;100.00;98739.38;6311954;20;3624280;-50
2022/09/30 01:51:12;;;;;;;;;53.00;45.00;;;;;13.68;100.00;98716.34;6278552;20;3622141;-47
2022/09/30 01:54:01;;;;;;;;;59.67;48.00;;;;;13.68;100.00;98700.16;6311418;20;3627352;-47
2022/09/30 01:56:49;;;;;;;;;50.00;41.00;;;;;13.66;100.00;98707.53;6311996;20;3608604;-48
2022/09/30 01:59:38;;;;;;;;;53.33;43.33;;;;;13.72;100.00;98715.09;6276005;20;2865950;-47
2022/09/30 02:02:51;;;;;;;;;48.67;40.33;;;;;13.74;100.00;98720.31;6310169;20;2854463;-51
2022/09/30 02:05:42;;;;;;;;;48.67;39.00;;;;;13.77;100.00;98703.84;6309554;20;3608942;-47
2022/09/30 02:08:28;;;;;;;;;40.00;36.00;;;;;13.77;100.00;98695.75;6276880;20;2848350;-48
2022/09/30 02:11:11;;;;;;;;;45.00;37.00;;;;;13.80;100.00;98688.25;6276189;20;2855573;-47
2022/09/30 02:14:10;;;;;;;;;51.00;42.67;;;;;13.79;100.00;98697.34;6307268;20;3594111;-49
2022/09/30 02:17:09;;;;;;;;;50.33;40.00;;;;;13.79;100.00;98713.53;6274326;20;3611733;-46
2022/09/30 02:20:11;;;;;;;;;44.67;36.33;;;;;13.77;100.00;98712.84;6305915;20;3589947;-49
2022/09/30 02:22:49;;;;;;;;;44.00;37.50;;;;;13.63;100.00;98718.59;6273644;20;2839894;-49
2022/09/30 02:25:44;;;;;;;;;40.00;36.00;;;;;13.87;100.00;98712.81;6278513;20;2850377;-51
2022/09/30 02:28:25;;;;;;;;;47.33;38.00;;;;;13.90;100.00;98703.59;6307640;20;3597304;-51
2022/09/30 02:31:00;;;;;;;;;39.00;35.00;;;;;13.80;100.00;98709.84;6274497;20;2842992;-47
2022/09/30 02:33:55;;;;;;;;;43.00;35.00;;;;;13.74;100.00;98710.38;6275520;20;2845177;-47
2022/09/30 02:36:52;;;;;;;;;38.50;35.50;;;;;13.80;100.00;98709.84;6275991;20;2851340;-47
2022/09/30 02:39:33;;;;;;;;;37.33;34.00;;;;;13.88;100.00;98711.84;6281095;20;3595156;-46
2022/09/30 02:42:27;;;;;;;;;46.00;39.00;;;;;13.85;100.00;98717.53;6277764;20;2866729;-49
2022/09/30 02:45:07;;;;;;;;;40.67;33.33;;;;;13.77;100.00;98720.91;6312582;20;3603375;-49
2022/09/30 02:48:05;;;;;;;;;39.33;34.33;;;;;13.73;100.00;98718.63;6273589;20;2853432;-50
2022/09/30 02:50:53;;;;;;;;;43.33;33.67;;;;;13.78;100.00;98737.97;6307507;20;3599314;-47
2022/09/30 02:53:55;;;;;;;;;40.00;34.33;;;;;13.72;100.00;98787.94;6279200;20;3584818;-49
2022/09/30 02:56:51;;;;;;;;;42.33;36.33;;;;;13.57;100.00;98811.72;6274916;20;2846141;-48
2022/09/30 02:59:23;;;;;;;;;45.67;37.33;;;;;13.72;100.00;98801.41;6304613;20;3594126;-48
2022/09/30 03:01:52;;;;;;;;;45.33;37.33;;;;;13.57;100.00;98814.41;6306316;20;3588840;-47
2022/09/30 03:04:34;;;;;;;;;42.00;37.00;;;;;13.67;100.00;98792.88;6274489;20;2847148;-49
2022/09/30 03:07:03;;;;;;;;;44.00;36.67;;;;;13.67;100.00;98747.03;6274957;20;2858775;-49
2022/09/30 03:09:35;;;;;;;;;42.00;37.33;;;;;13.58;100.00;98707.38;6307744;20;3592957;-48
2022/09/30 03:12:46;;;;;;;;;43.33;37.00;;;;;13.54;100.00;98725.69;6279020;20;3606018;-46
2022/09/30 03:15:48;;;;;;;;;38.33;33.33;;;;;13.60;100.00;98713.47;6309312;20;3576471;-49
2022/09/30 03:18:44;;;;;;;;;29.33;28.67;;;;;13.50;100.00;98701.81;6276888;20;3598187;-49
2022/09/30 03:22:01;;;;;;;;;25.33;24.67;;;;;13.59;100.00;98709.09;6310627;20;3598202;-51
2022/09/30 03:24:46;;;;;;;;;19.00;19.00;;;;;13.66;100.00;98702.13;6271031;20;2500272;-50
2022/09/30 03:27:52;;;;;;;;;20.00;20.00;;;;;13.67;100.00;98687.66;6277059;20;2500318;-51
2022/09/30 03:30:25;;;;;;;;;17.00;17.00;;;;;13.63;100.00;98686.22;6278590;20;2830515;-51
2022/09/30 03:33:10;;;;;;;;;19.00;19.00;;;;;13.66;100.00;98691.34;6278226;20;2835729;-49
2022/09/30 03:36:28;;;;;;;;;23.50;20.00;;;;;13.57;100.00;98698.44;6273077;20;2832634;-50
2022/09/30 03:39:55;;;;;;;;;27.50;23.00;;;;;13.64;100.00;98697.88;6273948;20;2838933;-51
2022/09/30 03:43:18;;;;;;;;;28.00;25.67;;;;;13.70;100.00;98700.03;6271295;20;3587935;-48
2022/09/30 03:46:23;;;;;;;;;29.00;29.00;;;;;13.67;100.00;98700.31;6271424;20;3602534;-49
2022/09/30 03:49:00;;;;;;;;;29.67;26.33;;;;;13.78;100.00;98698.34;6280508;20;3589951;-50
2022/09/30 03:51:31;;;;;;;;;31.00;29.67;;;;;13.73;100.00;98695.19;6268196;20;2843126;-50
2022/09/30 03:53:59;;;;;;;;;39.00;33.67;;;;;13.63;100.00;98690.78;6307852;20;3578325;-60
2022/09/30 03:56:30;;;;;;;;;37.67;33.33;;;;;13.67;100.00;98698.47;6271144;20;3597247;-59
2022/09/30 03:59:00;;;;;;;;;39.67;31.00;;;;;13.76;100.00;98691.38;6306734;20;3590925;-59
2022/09/30 04:01:29;;;;;;;;;41.33;35.00;;;;;13.81;100.00;98689.13;6275249;20;2856602;-60
2022/09/30 04:03:58;;;;;;;;;37.00;33.33;;;;;13.73;100.00;98689.81;6309989;20;3602481;-59
2022/09/30 04:06:26;;;;;;;;;39.50;35.00;;;;;13.83;100.00;98695.22;6274060;20;2847178;-60
2022/09/30 04:08:55;;;;;;;;;43.00;37.67;;;;;13.86;100.00;98700.34;6275834;20;3589864;-59
2022/09/30 04:11:24;;;;;;;;;44.33;36.00;;;;;13.79;100.00;98705.44;6277160;20;2857591;-60
2022/09/30 04:13:53;;;;;;;;;47.33;37.00;;;;;13.70;100.00;98708.97;6307948;20;3609632;-60
2022/09/30 04:16:22;;;;;;;;;45.00;36.33;;;;;13.76;100.00;98708.41;6276176;20;2849261;-60
2022/09/30 04:18:51;;;;;;;;;40.67;34.00;;;;;13.81;100.00;98706.16;6309847;20;3581503;-59
2022/09/30 04:21:19;;;;;;;;;41.00;33.00;;;;;13.86;100.00;98707.59;6277630;20;3596207;-60
2022/09/30 04:23:49;;;;;;;;;40.50;36.50;;;;;13.82;100.00;98710.56;6277015;20;2840979;-60
2022/09/30 04:26:19;;;;;;;;;45.67;38.33;;;;;13.84;100.00;98703.16;6272929;20;2842994;-58
2022/09/30 04:28:47;;;;;;;;;45.33;37.00;;;;;13.81;100.00;98716.94;6309576;20;3580473;-57
2022/09/30 04:31:18;;;;;;;;;50.00;41.00;;;;;13.72;100.00;98709.69;6271417;20;3629522;-46
2022/09/30 04:33:47;;;;;;;;;51.00;41.00;;;;;13.89;100.00;98718.94;6307428;20;3627351;-48
2022/09/30 04:36:17;;;;;;;;;44.67;36.33;;;;;13.91;100.00;98716.97;6307301;20;3590067;-51
2022/09/30 04:38:46;;;;;;;;;47.00;39.33;;;;;13.94;100.00;98715.84;6276084;20;3603645;-49
2022/09/30 04:41:16;;;;;;;;;51.33;41.33;;;;;13.90;100.00;98709.88;6308805;20;3612789;-52
2022/09/30 04:43:47;;;;;;;;;50.67;39.33;;;;;13.98;100.00;98714.53;6277231;20;3609664;-48
2022/09/30 04:46:21;;;;;;;;;51.75;41.75;;;;;13.97;100.00;98726.34;6312366;20;3627543;-53
2022/09/30 04:48:50;;;;;;;;;47.67;36.33;;;;;13.90;100.00;98722.50;6313943;20;3603619;-50
2022/09/30 04:51:21;;;;;;;;;53.33;42.00;;;;;13.75;100.00;98739.09;6280022;20;3628367;-50
2022/09/30 04:53:50;;;;;;;;;50.00;42.00;;;;;13.74;100.00;98750.00;6313059;20;3592957;-50
2022/09/30 04:56:19;;;;;;;;;47.67;39.00;;;;;13.65;100.00;98749.00;6279146;20;2861946;-48
2022/09/30 04:58:48;;;;;;;;;45.33;37.67;;;;;13.76;100.00;98750.72;6313549;20;3586711;-52
2022/09/30 05:01:18;;;;;;;;;46.33;39.33;;;;;13.68;100.00;98758.66;6283801;20;3587749;-47
2022/09/30 05:03:47;;;;;;;;;40.33;35.67;;;;;13.89;100.00;98759.41;6280356;20;3599258;-51
2022/09/30 05:06:17;;;;;;;;;48.00;39.00;;;;;13.74;100.00;98758.94;6277429;20;2860746;-51
2022/09/30 05:08:46;;;;;;;;;44.50;37.50;;;;;13.76;100.00;98751.56;6282102;20;2843035;-49
2022/09/30 05:11:19;;;;;;;;;44.33;36.33;;;;;13.81;100.00;98754.72;6283258;20;3593003;-48
2022/09/30 05:13:49;;;;;;;;;44.33;37.00;;;;;13.82;100.00;98745.66;6278531;20;2853511;-47
2022/09/30 05:16:18;;;;;;;;;45.67;37.00;;;;;13.77;100.00;98739.81;6309597;20;3590958;-50
2022/09/30 05:18:48;;;;;;;;;43.33;35.33;;;;;13.82;100.00;98744.75;6279148;20;3604830;-49
2022/09/30 05:21:19;;;;;;;;;44.00;36.00;;;;;13.84;100.00;98745.50;6317458;20;2664926;-50
2022/09/30 05:23:48;;;;;;;;;44.00;36.50;;;;;13.86;100.00;98738.13;6280918;20;2844046;-46
2022/09/30 05:26:16;;;;;;;;;45.67;37.00;;;;;13.77;100.00;98745.19;6282375;20;3596225;-50
2022/09/30 05:28:45;;;;;;;;;39.33;35.00;;;;;13.88;100.00;98744.22;6285829;20;3581650;-48
2022/09/30 05:31:14;;;;;;;;;41.00;36.50;;;;;13.88;100.00;98744.22;6280263;20;2830448;-49
2022/09/30 05:33:43;;;;;;;;;42.67;36.33;;;;;13.77;100.00;98753.31;6285679;20;3588797;-48
2022/09/30 05:36:15;;;;;;;;;39.00;34.00;;;;;13.86;100.00;98754.31;6277736;20;3583707;-52
2022/09/30 05:38:44;;;;;;;;;43.00;33.67;;;;;13.73;100.00;98756.41;6278201;20;3582712;-49
2022/09/30 05:41:14;;;;;;;;;41.00;33.33;;;;;13.85;100.00;98768.81;6311829;20;3584626;-50
2022/09/30 05:43:44;;;;;;;;;44.67;35.33;;;;;13.90;100.00;98779.16;6274591;20;2865039;-50
2022/09/30 05:46:17;;;;;;;;;43.00;36.67;;;;;13.91;100.00;98783.59;6313847;20;3586830;-47
2022/09/30 05:48:46;;;;;;;;;43.00;34.00;;;;;13.71;100.00;98780.81;6283110;20;2800371;-48
2022/09/30 05:51:14;;;;;;;;;28.00;28.00;;;;;13.89;100.00;98788.25;6278034;20;2500283;-48
2022/09/30 05:53:43;;;;;;;;;41.00;36.00;;;;;13.79;100.00;98788.22;6284192;20;3605493;-48
2022/09/30 05:56:13;;;;;;;;;40.00;36.00;;;;;13.69;100.00;98793.59;6278117;20;2846179;-49
2022/09/30 05:58:42;;;;;;;;;39.33;34.00;;;;;13.78;100.00;98805.41;6313385;20;3585698;-49
2022/09/30 06:01:14;;;;;;;;;40.67;35.33;;;;;13.71;100.00;98821.28;6278057;20;3592964;-49
2022/09/30 06:03:45;;;;;;;;;42.00;37.00;;;;;13.74;100.00;98815.59;6277968;20;2851461;-48
2022/09/30 06:06:15;;;;;;;;;34.33;32.67;;;;;13.72;100.00;98814.06;6309855;20;3602092;-46
2022/09/30 06:08:45;;;;;;;;;44.00;36.00;;;;;13.60;100.00;98821.38;6280992;20;2836825;-47
2022/09/30 06:11:19;;;;;;;;;35.00;33.00;;;;;13.66;100.00;98831.59;6279101;20;3591933;-46
2022/09/30 06:13:48;;;;;;;;;38.67;34.00;;;;;13.79;100.00;98817.91;6277202;20;3595039;-49
2022/09/30 06:16:18;;;;;;;;;42.00;33.00;;;;;13.63;100.00;98817.56;6307892;20;3590918;-50
2022/09/30 06:18:47;;;;;;;;;38.33;33.00;;;;;13.71;100.00;98802.38;6274867;20;3591970;-47
2022/09/30 06:21:17;;;;;;;;;40.33;36.00;;;;;13.81;100.00;98802.44;6289343;20;3592109;-49
2022/09/30 06:23:45;;;;;;;;;36.67;32.67;;;;;13.78;100.00;98806.25;6311215;20;3596168;-48
2022/09/30 06:26:15;;;;;;;;;37.67;34.00;;;;;13.76;100.00;98800.13;6276274;20;2840988;-51
2022/09/30 06:28:44;;;;;;;;;41.33;35.33;;;;;13.77;100.00;98804.56;6304896;20;3581622;-58
2022/09/30 06:31:13;;;;;;;;;35.00;30.00;;;;;13.78;100.00;98814.34;6276653;20;2855672;-59
2022/09/30 06:33:42;;;;;;;;;29.67;29.67;;;;;13.72;100.00;98809.50;6311641;20;3577347;-58
2022/09/30 06:36:11;;;;;;;;;31.67;30.00;;;;;13.87;100.00;98811.81;6277929;20;3597151;-58
2022/09/30 06:38:40;;;;;;;;;27.67;26.00;;;;;13.68;100.00;98808.06;6280594;20;3597099;-59
2022/09/30 06:41:09;;;;;;;;;29.67;28.00;;;;;13.90;100.00;98816.94;6279170;20;3610751;-58
2022/09/30 06:43:39;;;;;;;;;23.67;22.33;;;;;13.69;100.00;98812.47;6313119;20;3587800;-59
2022/09/30 06:46:22;;;;;;;;;31.33;29.33;;;;;13.78;100.00;98805.41;6277442;20;3612778;-59
2022/09/30 06:48:58;;;;;;;;;30.67;27.67;;;;;13.83;100.00;98812.09;6309957;20;3605518;-59
2022/09/30 06:51:41;;;;;;;;;33.00;30.00;;;;;13.90;100.00;98811.53;6273979;20;3594059;-60
2022/09/30 06:54:11;;;;;;;;;29.33;26.00;;;;;13.88;100.00;98808.16;6308746;20;3591923;-59
2022/09/30 06:56:39;;;;;;;;;25.67;25.67;;;;;14.04;100.00;98805.78;6307362;20;3588800;-60
2022/09/30 06:59:10;;;;;;;;;30.33;27.00;;;;;14.05;100.00;98788.56;6276647;20;3605456;-60
2022/09/30 07:01:38;;;;;;;;;30.67;29.00;;;;;14.08;100.00;98787.44;6312551;20;3602462;-60
2022/09/30 07:04:10;;;;;;;;;32.00;30.67;;;;;14.00;100.00;98782.75;6281083;20;3606628;-60
2022/09/30 07:06:40;;;;;;;;;30.67;29.00;;;;;13.89;100.00;98788.25;6280337;20;3604425;-60
2022/09/30 07:09:11;;;;;;;;;24.00;20.00;;;;;13.89;100.00;98790.97;6280579;20;2807565;-60
2022/09/30 07:11:40;;;;;;;;;32.50;30.00;;;;;13.89;100.00;98790.97;6280463;20;2831506;-60
2022/09/30 07:14:09;;;;;;;;;32.33;30.67;;;;;14.00;100.00;98796.22;6285268;20;3586892;-60
2022/09/30 07:16:39;;;;;;;;;36.67;32.00;;;;;14.04;100.00;98803.94;6276650;20;2853524;-60
2022/09/30 07:19:09;;;;;;;;;38.67;31.00;;;;;14.13;100.00;98801.38;6313835;20;3590934;-60
2022/09/30 07:21:38;;;;;;;;;36.33;32.00;;;;;14.15;100.00;98815.59;6279505;20;3568075;-60
2022/09/30 07:24:08;;;;;;;;;37.33;33.33;;;;;14.14;100.00;98814.75;6280936;20;2844123;-60
2022/09/30 07:26:36;;;;;;;;;33.00;30.00;;;;;14.11;100.00;98820.41;6313327;20;2588879;-59
2022/09/30 07:29:06;;;;;;;;;36.00;30.00;;;;;14.17;100.00;98825.28;6281391;20;3591016;-60
2022/09/30 07:31:34;;;;;;;;;36.33;32.00;;;;;14.29;100.00;98828.69;6284068;20;3597100;-59
2022/09/30 07:34:06;;;;;;;;;37.67;32.00;;;;;14.34;100.00;98836.38;6285264;20;3594000;-59
2022/09/30 07:36:39;;;;;;;;;41.00;33.67;;;;;14.25;100.00;98838.09;6281261;20;3590922;-60
2022/09/30 07:39:10;;;;;;;;;40.67;33.00;;;;;14.22;100.00;98839.22;6282704;20;3592993;-60
2022/09/30 07:41:39;;;;;;;;;39.00;32.00;;;;;14.21;100.00;98845.59;6277677;20;3599269;-59
2022/09/30 07:44:13;;;;;;;;;29.67;26.00;;;;;14.31;100.00;98847.47;6284597;20;3606645;-60
2022/09/30 07:46:45;;;;;;;;;34.67;31.33;;;;;14.23;100.00;98845.47;6279536;20;3571221;-60
2022/09/30 07:49:25;;;;;;;;;35.33;32.00;;;;;14.29;100.00;98847.59;6314188;20;3582543;-60
2022/09/30 07:51:58;;;;;;;;;33.00;32.00;;;;;14.13;100.00;98850.81;6282482;20;3604506;-60
2022/09/30 07:54:32;;;;;;;;;31.67;29.67;;;;;14.17;100.00;98846.88;6282143;20;3595142;-60
2022/09/30 07:57:08;;;;;;;;;22.00;22.00;;;;;14.23;100.00;98853.56;6274102;20;2846154;-60
2022/09/30 07:59:41;;;;;;;;;29.00;25.67;;;;;14.23;100.00;98851.69;6277078;20;3593056;-60
2022/09/30 08:02:18;;;;;;;;;30.33;28.67;;;;;14.21;100.00;98863.63;6315081;20;3600270;-60
2022/09/30 08:04:47;;;;;;;;;31.67;29.67;;;;;14.16;100.00;98876.69;6280483;20;2848353;-61
2022/09/30 08:07:18;;;;;;;;;32.00;30.00;;;;;14.19;100.00;98877.28;6311326;20;3592010;-60
2022/09/30 08:09:46;;;;;;;;;37.00;32.67;;;;;14.34;100.00;98882.28;6283070;20;3580535;-60
2022/09/30 08:12:15;;;;;;;;;39.67;33.33;;;;;14.28;100.00;98881.84;6280953;20;3610710;-60
2022/09/30 08:14:44;;;;;;;;;30.67;27.33;;;;;14.46;100.00;98884.75;6283257;20;3598157;-60
2022/09/30 08:17:13;;;;;;;;;33.33;32.00;;;;;14.43;100.00;98890.44;6283198;20;3597253;-60
2022/09/30 08:19:43;;;;;;;;;36.67;32.67;;;;;14.54;100.00;98892.19;6286147;20;2848316;-59
2022/09/30 08:22:13;;;;;;;;;35.67;31.00;;;;;14.64;100.00;98893.06;6316066;20;3586723;-59
2022/09/30 08:24:42;;;;;;;;;37.00;33.00;;;;;14.64;100.00;98893.06;6287704;20;3596291;-59
2022/09/30 08:27:10;;;;;;;;;36.67;33.33;;;;;14.80;100.00;98897.06;6285739;20;3576379;-58
2022/09/30 08:29:39;;;;;;;;;35.00;33.00;;;;;14.78;100.00;98904.44;6283431;20;2842991;-57
2022/09/30 08:32:31;;;;;;;;;36.00;34.00;;;;;14.77;100.00;98900.03;6288717;20;3590982;-58
2022/09/30 08:35:00;;;;;;;;;42.33;33.67;;;;;14.87;100.00;98903.59;6287641;20;3590884;-59
2022/09/30 08:37:28;;;;;;;;;35.33;31.33;;;;;14.81;100.00;98905.00;6284825;20;3600353;-58
2022/09/30 08:39:57;;;;;;;;;33.00;31.67;;;;;14.90;100.00;98912.28;6287103;20;3568027;-59
2022/09/30 08:42:28;;;;;;;;;37.00;33.33;;;;;14.93;100.00;98914.72;6285016;20;3599218;-60
2022/09/30 08:45:32;;;;;;;;;37.00;32.67;;;;;15.05;100.00;98918.13;6283959;20;3596128;-57
2022/09/30 08:48:18;;;;;;;;;34.67;32.67;;;;;15.13;100.00;98920.97;6284883;20;3592984;-59
2022/09/30 08:51:14;;;;;;;;;33.50;32.00;;;;;15.36;100.00;98928.78;6284160;20;2862898;-59
2022/09/30 08:53:45;;;;;;;;;30.67;30.00;;;;;15.73;100.00;98938.88;6288071;20;3602493;-60
2022/09/30 08:56:30;;;;;;;;;33.00;32.00;;;;;15.91;100.00;98936.28;6285234;20;3589948;-56
2022/09/30 08:59:35;;;;;;;;;33.33;30.67;;;;;15.81;100.00;98947.13;6286664;20;3601327;-57
2022/09/30 09:02:18;;;;;;;;;27.33;27.00;;;;;15.55;100.00;98949.56;6284929;20;3591910;-57
2022/09/30 09:04:51;;;;;;;;;36.33;31.00;;;;;15.70;100.00;98955.41;6279280;20;3608758;-56
2022/09/30 09:07:44;;;;;;;;;32.00;31.00;;;;;15.72;100.00;98934.47;6283921;20;3588919;-55
2022/09/30 09:10:44;;;;;;;;;31.33;28.00;;;;;16.60;100.00;98938.53;6269450;20;3608662;-56
2022/09/30 09:13:48;;;;;;;;;27.00;27.00;;;;;16.78;100.00;98941.31;6287262;20;3597152;-57
2022/09/30 09:16:31;;;;;;;;;27.00;27.00;;;;;16.83;100.00;98949.84;6285421;20;3583618;-57
2022/09/30 09:19:20;;;;;;;;;24.67;24.00;;;;;17.11;100.00;98950.66;6282045;20;3582543;-54
2022/09/30 09:21:58;;;;;;;;;25.00;24.00;;;;;16.96;100.00;98949.50;6283970;20;3577472;-57
2022/09/30 09:24:58;;;;;;;;;23.33;23.00;;;;;16.63;100.00;98948.22;6282940;20;3589902;-55
2022/09/30 09:27:34;;;;;;;;;21.67;19.00;;;;;16.33;100.00;98958.38;6280881;20;3565961;-57
2022/09/30 09:30:16;;;;;;;;;20.33;20.33;;;;;16.36;100.00;98968.06;6279060;20;2825253;-54
2022/09/30 09:32:57;;;;;;;;;26.67;22.33;;;;;16.29;100.00;98981.31;6316832;20;3573719;-56
2022/09/30 09:36:10;;;;;;;;;15.00;15.00;;;;;16.34;100.00;98970.91;6284322;20;3541016;-55
2022/09/30 09:39:25;;;;;;;;;20.00;20.00;;;;;16.55;100.00;98972.53;6317540;20;3573214;-55
2022/09/30 09:42:24;;;;;;;;;18.00;18.00;;;;;16.59;100.00;98977.50;6282521;20;2827373;-56
2022/09/30 09:45:20;;;;;;;;;17.00;17.00;;;;;17.00;100.00;98972.56;6279847;20;2824251;-55
2022/09/30 09:47:52;;;;;;;;;21.33;17.33;;;;;17.14;100.00;98984.78;6284087;20;3571144;-54
2022/09/30 09:51:17;;;;;;;;;20.50;19.50;;;;;17.38;100.00;98995.00;6280985;20;2831937;-56
2022/09/30 09:53:47;;;;;;;;;18.00;18.00;;;;;17.17;100.00;98995.31;6280232;20;2487784;-56
2022/09/30 09:56:21;;;;;;;;;21.33;21.00;;;;;17.56;100.00;99000.41;6285224;20;3566318;-56
2022/09/30 09:59:13;;;;;;;;;17.50;17.50;;;;;17.15;100.00;98999.19;6279041;20;2836748;-58
2022/09/30 10:01:52;;;;;;;;;20.00;18.33;;;;;17.08;100.00;99007.06;6279590;20;2840020;-56
2022/09/30 10:04:27;;;;;;;;;13.00;13.00;;;;;17.09;100.00;99006.06;6312937;20;3529587;-49
2022/09/30 10:07:00;;;;;;;;;16.67;15.67;;;;;16.87;100.00;99021.75;6314434;20;3542002;-55
2022/09/30 10:09:35;;;;;;;;;19.50;19.50;;;;;16.95;100.00;99017.44;6277490;20;2483672;-55
2022/09/30 10:12:06;;;;;;;;;16.00;16.00;;;;;17.12;100.00;99022.03;6284174;20;2815890;-56
2022/09/30 10:14:51;;;;;;;;;16.00;15.50;;;;;17.14;100.00;99022.75;6282381;20;2821087;-53
2022/09/30 10:17:37;;;;;;;;;15.50;15.50;;;;;17.34;100.00;99024.31;6284726;20;2492010;-50
2022/09/30 10:20:14;;;;;;;;;18.00;15.00;;;;;17.41;100.00;99029.13;6282237;20;2487778;-54
2022/09/30 10:22:43;;;;;;;;;10.67;10.67;;;;;17.45;100.00;99022.38;6283589;20;3508593;-54
2022/09/30 10:25:21;;;;;;;;;9.33;9.33;;;;;17.25;100.00;99025.25;6309123;20;2771510;-54
2022/09/30 10:28:00;;;;;;;;;10.50;9.50;;;;;17.33;100.00;99033.47;6320887;20;2773235;-53
2022/09/30 10:30:49;;;;;;;;;8.00;8.00;;;;;16.86;100.00;99038.19;6289201;20;2744185;-54
2022/09/30 10:33:44;;;;;;;;;12.00;11.00;;;;;16.72;100.00;99039.50;6278449;20;2809758;-53
2022/09/30 10:36:19;;;;;;;;;9.00;9.00;;;;;16.84;100.00;99040.19;6334686;20;2764885;-51
2022/09/30 10:38:58;;;;;;;;;12.50;11.00;;;;;16.79;100.00;99042.47;6284370;20;2794064;-55
2022/09/30 10:41:37;;;;;;;;;12.00;10.67;;;;;16.71;100.00;99042.34;6276039;20;3520422;-54
2022/09/30 10:44:19;;;;;;;;;9.33;9.33;;;;;16.89;100.00;99057.69;6310050;20;2767015;-54
2022/09/30 10:46:52;;;;;;;;;9.00;9.00;;;;;16.96;100.00;99057.97;6314134;20;2760732;-49
2022/09/30 10:49:36;;;;;;;;;12.00;11.00;;;;;17.30;100.00;99060.91;6282395;20;2786753;-50
2022/09/30 10:52:30;;;;;;;;;10.00;8.60;;;;;17.39;100.00;99063.69;6305268;20;2775318;-48
2022/09/30 10:55:07;;;;;;;;;7.80;7.80;;;;;17.59;100.00;99065.28;6310727;20;2743208;-45
2022/09/30 10:57:44;;;;;;;;;10.20;7.80;;;;;17.82;100.00;99064.81;6337945;20;2756570;-46
2022/09/30 11:00:20;;;;;;;;;9.75;7.50;;;;;17.60;100.00;99077.84;6308519;20;2706582;-45
2022/09/30 11:03:22;;;;;;;;;7.00;7.00;;;;;17.38;100.00;99071.00;6331602;20;2736786;-49
2022/09/30 11:05:52;;;;;;;;;7.00;7.00;;;;;17.51;100.00;99078.78;6333211;20;2735994;-46
2022/09/30 11:08:42;;;;;;;;;6.50;6.50;;;;;17.56;100.00;99081.84;6313335;20;2743042;-47
2022/09/30 11:11:32;;;;;;;;;6.20;6.00;;;;;17.37;100.00;99082.00;6310645;20;2741949;-49
2022/09/30 11:14:07;;;;;;;;;5.60;4.40;;;;;17.44;100.00;99083.09;6336490;20;2744008;-44
2022/09/30 11:17:22;;;;;;;;;11.00;10.00;;;;;17.27;100.00;99087.47;6312620;20;2786733;-45
2022/09/30 11:20:25;;;;;;;;;7.60;7.60;;;;;17.02;100.00;99099.91;6306539;20;2734806;-47
2022/09/30 11:23:14;;;;;;;;;14.67;13.33;;;;;17.13;100.00;99115.13;6310180;20;3518994;-48
2022/09/30 11:26:13;;;;;;;;;6.40;6.40;;;;;17.21;100.00;99120.63;6339931;20;2731649;-45
2022/09/30 11:29:18;;;;;;;;;4.00;4.00;;;;;17.01;100.00;99126.16;6308520;20;2752380;-47
2022/09/30 11:32:20;;;;;;;;;6.50;6.50;;;;;16.93;100.00;99127.91;6279925;20;2740939;-46
2022/09/30 11:35:29;;;;;;;;;6.00;5.00;;;;;16.97;100.00;99151.03;6303974;20;2748393;-46
2022/09/30 11:39:02;;;;;;;;;2.80;2.80;;;;;16.75;100.00;99157.63;6336303;20;2736754;-46
2022/09/30 11:41:47;;;;;;;;;3.00;3.00;;;;;16.63;100.00;99156.94;6314008;20;2740948;-49
2022/09/30 11:44:36;;;;;;;;;4.00;4.00;;;;;16.67;100.00;99155.66;6286789;20;2750264;-46
2022/09/30 11:47:49;;;;;;;;;3.00;3.00;;;;;16.66;100.00;99159.34;6280678;20;2749248;-44
2022/09/30 11:50:29;;;;;;;;;6.00;6.00;;;;;16.67;100.00;99156.50;6283881;20;2740969;-47